sensor_id;sensor_type;location;lat;lon;timestamp;pressure;altitude;pressure_sealevel;temperature;humidity
79625;BME280;69101;45.534;10.218;2023-06-14T00:00:37;99397.69;;;25.11;54.06
79625;BME280;69101;45.534;10.218;2023-06-14T00:03:09;99384.13;;;25.13;54.28
79625;BME280;69101;45.534;10.218;2023-06-14T00:05:42;99394.19;;;25.11;54.17
79625;BME280;69101;45.534;10.218;2023-06-14T00:08:09;99386.22;;;25.11;53.88
79625;BME280;69101;45.534;10.218;2023-06-14T00:10:35;99385.66;;;25.09;54.10
79625;BME280;69101;45.534;10.218;2023-06-14T00:13:02;99383.22;;;25.07;54.10
79625;BME280;69101;45.534;10.218;2023-06-14T00:15:27;99383.22;;;25.07;53.86
79625;BME280;69101;45.534;10.218;2023-06-14T00:17:53;99379.41;;;25.03;53.95
79625;BME280;69101;45.534;10.218;2023-06-14T00:20:20;99390.16;;;25.08;53.64
79625;BME280;69101;45.534;10.218;2023-06-14T00:22:46;99390.97;;;25.09;53.89
79625;BME280;69101;45.534;10.218;2023-06-14T00:25:11;99386.94;;;25.06;53.85
79625;BME280;69101;45.534;10.218;2023-06-14T00:27:36;99391.19;;;25.07;53.96
79625;BME280;69101;45.534;10.218;2023-06-14T00:30:02;99382.66;;;25.05;53.79
79625;BME280;69101;45.534;10.218;2023-06-14T00:32:27;99381.38;;;25.08;53.91
79625;BME280;69101;45.534;10.218;2023-06-14T00:34:53;99376.28;;;25.06;53.72
79625;BME280;69101;45.534;10.218;2023-06-14T00:37:18;99381.00;;;25.04;53.79
79625;BME280;69101;45.534;10.218;2023-06-14T00:39:43;99379.63;;;25.02;53.54
79625;BME280;69101;45.534;10.218;2023-06-14T00:42:09;99380.44;;;25.02;53.80
79625;BME280;69101;45.534;10.218;2023-06-14T00:44:35;99371.44;;;25.03;53.36
79625;BME280;69101;45.534;10.218;2023-06-14T00:47:00;99369.81;;;25.02;53.98
79625;BME280;69101;45.534;10.218;2023-06-14T00:49:27;99364.28;;;25.04;53.43
79625;BME280;69101;45.534;10.218;2023-06-14T00:51:54;99365.78;;;25.00;53.61
79625;BME280;69101;45.534;10.218;2023-06-14T00:54:20;99365.22;;;24.98;53.29
79625;BME280;69101;45.534;10.218;2023-06-14T00:56:45;99366.59;;;25.00;53.17
79625;BME280;69101;45.534;10.218;2023-06-14T00:59:11;99362.19;;;24.94;53.29
79625;BME280;69101;45.534;10.218;2023-06-14T01:01:36;99364.13;;;24.99;53.10
79625;BME280;69101;45.534;10.218;2023-06-14T01:04:02;99367.63;;;24.99;53.37
79625;BME280;69101;45.534;10.218;2023-06-14T01:09:03;99359.53;;;24.94;53.20
79625;BME280;69101;45.534;10.218;2023-06-14T01:11:34;99354.78;;;24.96;53.13
79625;BME280;69101;45.534;10.218;2023-06-14T01:14:02;99349.72;;;24.95;53.10
79625;BME280;69101;45.534;10.218;2023-06-14T01:16:29;99354.22;;;24.94;53.16
79625;BME280;69101;45.534;10.218;2023-06-14T01:18:56;99347.06;;;24.95;53.09
79625;BME280;69101;45.534;10.218;2023-06-14T01:21:24;99355.28;;;24.93;53.15
79625;BME280;69101;45.534;10.218;2023-06-14T01:23:51;99343.56;;;24.94;53.13
79625;BME280;69101;45.534;10.218;2023-06-14T01:26:21;99347.31;;;24.93;52.91
79625;BME280;69101;45.534;10.218;2023-06-14T01:28:47;99345.66;;;24.92;53.00
79625;BME280;69101;45.534;10.218;2023-06-14T01:31:19;99346.13;;;24.89;52.84
79625;BME280;69101;45.534;10.218;2023-06-14T01:33:48;99337.13;;;24.90;53.08
79625;BME280;69101;45.534;10.218;2023-06-14T01:36:15;99344.28;;;24.89;52.96
79625;BME280;69101;45.534;10.218;2023-06-14T01:38:43;99341.63;;;24.89;53.13
79625;BME280;69101;45.534;10.218;2023-06-14T01:41:09;99349.03;;;24.87;53.01
79625;BME280;69101;45.534;10.218;2023-06-14T01:43:35;99340.81;;;24.89;53.23
79625;BME280;69101;45.534;10.218;2023-06-14T01:46:02;99336.56;;;24.88;52.98
79625;BME280;69101;45.534;10.218;2023-06-14T01:48:28;99341.28;;;24.86;53.00
79625;BME280;69101;45.534;10.218;2023-06-14T01:50:53;99343.16;;;24.85;53.19
79625;BME280;69101;45.534;10.218;2023-06-14T01:53:19;99342.34;;;24.85;53.05
79625;BME280;69101;45.534;10.218;2023-06-14T01:55:44;99335.41;;;24.84;53.34
79625;BME280;69101;45.534;10.218;2023-06-14T01:58:13;99340.72;;;24.84;53.20
79625;BME280;69101;45.534;10.218;2023-06-14T02:00:39;99341.53;;;24.84;53.28
79625;BME280;69101;45.534;10.218;2023-06-14T02:03:05;99348.47;;;24.85;53.17
79625;BME280;69101;45.534;10.218;2023-06-14T02:05:30;99338.31;;;24.82;53.34
79625;BME280;69101;45.534;10.218;2023-06-14T02:07:56;99346.03;;;24.84;53.39
79625;BME280;69101;45.534;10.218;2023-06-14T02:10:22;99341.53;;;24.84;53.03
79625;BME280;69101;45.534;10.218;2023-06-14T02:12:47;99339.13;;;24.83;53.16
79625;BME280;69101;45.534;10.218;2023-06-14T02:15:13;99340.16;;;24.82;53.42
79625;BME280;69101;45.534;10.218;2023-06-14T02:17:48;99335.88;;;24.81;53.18
79625;BME280;69101;45.534;10.218;2023-06-14T02:20:14;99343.28;;;24.79;53.31
79625;BME280;69101;45.534;10.218;2023-06-14T02:22:40;99333.22;;;24.81;53.29
79625;BME280;69101;45.534;10.218;2023-06-14T02:25:05;99341.44;;;24.79;53.39
79625;BME280;69101;45.534;10.218;2023-06-14T02:27:32;99340.03;;;24.77;53.21
79625;BME280;69101;45.534;10.218;2023-06-14T02:29:58;99337.97;;;24.79;53.28
79625;BME280;69101;45.534;10.218;2023-06-14T02:32:23;99344.53;;;24.76;53.38
79625;BME280;69101;45.534;10.218;2023-06-14T02:34:48;99338.41;;;24.76;53.32
79625;BME280;69101;45.534;10.218;2023-06-14T02:37:15;99338.41;;;24.76;53.28
79625;BME280;69101;45.534;10.218;2023-06-14T02:39:41;99342.94;;;24.75;53.39
79625;BME280;69101;45.534;10.218;2023-06-14T02:42:07;99337.63;;;24.75;53.44
79625;BME280;69101;45.534;10.218;2023-06-14T02:44:32;99340.28;;;24.75;53.32
79625;BME280;69101;45.534;10.218;2023-06-14T02:46:57;99336.81;;;24.75;53.48
79625;BME280;69101;45.534;10.218;2023-06-14T02:49:24;99337.84;;;24.74;53.59
79625;BME280;69101;45.534;10.218;2023-06-14T02:51:49;99332.50;;;24.74;53.45
79625;BME280;69101;45.534;10.218;2023-06-14T02:54:14;99337.00;;;24.73;53.69
79625;BME280;69101;45.534;10.218;2023-06-14T02:56:40;99338.91;;;24.73;53.37
79625;BME280;69101;45.534;10.218;2023-06-14T02:59:06;99336.22;;;24.73;53.46
79625;BME280;69101;45.534;10.218;2023-06-14T03:01:32;99337.25;;;24.72;53.80
79625;BME280;69101;45.534;10.218;2023-06-14T03:04:09;99334.03;;;24.70;53.78
79625;BME280;69101;45.534;10.218;2023-06-14T03:06:34;99336.69;;;24.70;53.81
79625;BME280;69101;45.534;10.218;2023-06-14T03:09:01;99333.22;;;24.69;53.89
79625;BME280;69101;45.534;10.218;2023-06-14T03:11:30;99333.22;;;24.69;53.68
79625;BME280;69101;45.534;10.218;2023-06-14T03:13:55;99331.59;;;24.68;53.80
79625;BME280;69101;45.534;10.218;2023-06-14T03:16:21;99331.59;;;24.68;53.68
79625;BME280;69101;45.534;10.218;2023-06-14T03:18:52;99328.13;;;24.68;53.75
79625;BME280;69101;45.534;10.218;2023-06-14T03:21:18;99329.41;;;24.65;53.64
79625;BME280;69101;45.534;10.218;2023-06-14T03:23:44;99325.97;;;24.65;53.41
79625;BME280;69101;45.534;10.218;2023-06-14T03:26:10;99324.91;;;24.66;53.54
79625;BME280;69101;45.534;10.218;2023-06-14T03:28:39;99324.91;;;24.66;53.52
79625;BME280;69101;45.534;10.218;2023-06-14T03:31:05;99320.66;;;24.65;53.42
79625;BME280;69101;45.534;10.218;2023-06-14T03:33:30;99320.66;;;24.65;53.33
79625;BME280;69101;45.534;10.218;2023-06-14T03:35:56;99319.00;;;24.64;53.13
79625;BME280;69101;45.534;10.218;2023-06-14T03:38:21;99312.66;;;24.65;53.27
79625;BME280;69101;45.534;10.218;2023-06-14T03:40:47;99310.78;;;24.65;53.11
79625;BME280;69101;45.534;10.218;2023-06-14T03:43:12;99320.66;;;24.65;53.32
79625;BME280;69101;45.534;10.218;2023-06-14T03:45:38;99314.97;;;24.61;53.28
79625;BME280;69101;45.534;10.218;2023-06-14T03:48:03;99318.44;;;24.62;53.07
79625;BME280;69101;45.534;10.218;2023-06-14T03:50:31;99319.47;;;24.61;53.08
79625;BME280;69101;45.534;10.218;2023-06-14T03:52:57;99316.81;;;24.61;53.01
79625;BME280;69101;45.534;10.218;2023-06-14T03:55:22;99329.09;;;24.62;53.02
79625;BME280;69101;45.534;10.218;2023-06-14T03:57:51;99326.06;;;24.58;52.93
79625;BME280;69101;45.534;10.218;2023-06-14T04:00:16;99331.19;;;24.60;53.09
79625;BME280;69101;45.534;10.218;2023-06-14T04:02:42;99323.19;;;24.60;53.09
79625;BME280;69101;45.534;10.218;2023-06-14T04:05:09;99324.47;;;24.57;53.07
79625;BME280;69101;45.534;10.218;2023-06-14T04:07:34;99328.97;;;24.57;53.13
79625;BME280;69101;45.534;10.218;2023-06-14T04:10:06;99322.03;;;24.56;53.02
79625;BME280;69101;45.534;10.218;2023-06-14T04:12:33;99331.84;;;24.55;53.14
79625;BME280;69101;45.534;10.218;2023-06-14T04:14:58;99332.66;;;24.56;53.15
79625;BME280;69101;45.534;10.218;2023-06-14T04:17:23;99334.50;;;24.55;53.16
79625;BME280;69101;45.534;10.218;2023-06-14T04:19:49;99329.44;;;24.54;53.12
79625;BME280;69101;45.534;10.218;2023-06-14T04:22:14;99328.16;;;24.56;53.08
79625;BME280;69101;45.534;10.218;2023-06-14T04:24:40;99331.84;;;24.55;52.73
79625;BME280;69101;45.534;10.218;2023-06-14T04:27:07;99334.31;;;24.57;52.99
79625;BME280;69101;45.534;10.218;2023-06-14T04:29:33;99345.75;;;24.57;52.98
79625;BME280;69101;45.534;10.218;2023-06-14T04:31:58;99348.88;;;24.54;52.89
79625;BME280;69101;45.534;10.218;2023-06-14T04:34:25;99345.16;;;24.55;52.96
79625;BME280;69101;45.534;10.218;2023-06-14T04:36:54;99349.69;;;24.55;52.85
79625;BME280;69101;45.534;10.218;2023-06-14T04:39:22;99344.59;;;24.53;53.02
79625;BME280;69101;45.534;10.218;2023-06-14T04:41:47;99348.63;;;24.56;52.83
79625;BME280;69101;45.534;10.218;2023-06-14T04:44:16;99352.34;;;24.55;52.72
79625;BME280;69101;45.534;10.218;2023-06-14T04:46:43;99344.59;;;24.53;52.67
79625;BME280;69101;45.534;10.218;2023-06-14T04:49:15;99340.91;;;24.54;52.81
79625;BME280;69101;45.534;10.218;2023-06-14T04:51:45;99347.59;;;24.57;52.71
79625;BME280;69101;45.534;10.218;2023-06-14T04:54:11;99349.69;;;24.55;52.69
79625;BME280;69101;45.534;10.218;2023-06-14T04:56:39;99351.53;;;24.54;52.66
79625;BME280;69101;45.534;10.218;2023-06-14T04:59:04;99355.22;;;24.53;52.66
79625;BME280;69101;45.534;10.218;2023-06-14T05:01:30;99353.13;;;24.55;52.62
79625;BME280;69101;45.534;10.218;2023-06-14T05:03:57;99358.69;;;24.54;52.56
79625;BME280;69101;45.534;10.218;2023-06-14T05:06:22;99358.69;;;24.54;52.89
79625;BME280;69101;45.534;10.218;2023-06-14T05:08:48;99361.09;;;24.55;52.54
79625;BME280;69101;45.534;10.218;2023-06-14T05:11:14;99359.72;;;24.53;52.95
79625;BME280;69101;45.534;10.218;2023-06-14T05:13:40;99361.34;;;24.54;52.69
79625;BME280;69101;45.534;10.218;2023-06-14T05:16:06;99366.66;;;24.54;52.87
79625;BME280;69101;45.534;10.218;2023-06-14T05:18:31;99372.00;;;24.54;52.66
79625;BME280;69101;45.534;10.218;2023-06-14T05:20:59;99368.31;;;24.55;52.69
79625;BME280;69101;45.534;10.218;2023-06-14T05:23:25;99362.97;;;24.55;52.50
79625;BME280;69101;45.534;10.218;2023-06-14T05:25:50;99366.66;;;24.54;52.62
79625;BME280;69101;45.534;10.218;2023-06-14T05:28:15;99370.97;;;24.55;52.54
79625;BME280;69101;45.534;10.218;2023-06-14T05:30:41;99372.81;;;24.54;52.46
79625;BME280;69101;45.534;10.218;2023-06-14T05:33:07;99379.72;;;24.55;52.55
79625;BME280;69101;45.534;10.218;2023-06-14T05:35:32;99369.91;;;24.56;52.59
79625;BME280;69101;45.534;10.218;2023-06-14T05:37:58;99372.56;;;24.56;52.48
79625;BME280;69101;45.534;10.218;2023-06-14T05:40:23;99367.03;;;24.57;52.54
79625;BME280;69101;45.534;10.218;2023-06-14T05:42:48;99379.25;;;24.58;52.54
79625;BME280;69101;45.534;10.218;2023-06-14T05:45:14;99378.69;;;24.56;52.42
79625;BME280;69101;45.534;10.218;2023-06-14T05:47:41;99382.97;;;24.57;52.48
79625;BME280;69101;45.534;10.218;2023-06-14T05:50:07;99387.22;;;24.58;52.45
79625;BME280;69101;45.534;10.218;2023-06-14T05:52:34;99383.75;;;24.58;52.50
79625;BME280;69101;45.534;10.218;2023-06-14T05:54:59;99385.38;;;24.59;52.47
79625;BME280;69101;45.534;10.218;2023-06-14T05:57:25;99398.22;;;24.62;52.46
79625;BME280;69101;45.534;10.218;2023-06-14T05:59:50;99392.91;;;24.62;52.39
79625;BME280;69101;45.534;10.218;2023-06-14T06:02:16;99394.50;;;24.63;52.31
79625;BME280;69101;45.534;10.218;2023-06-14T06:04:41;99397.66;;;24.60;52.47
79625;BME280;69101;45.534;10.218;2023-06-14T06:07:07;99400.88;;;24.62;52.54
79625;BME280;69101;45.534;10.218;2023-06-14T06:09:32;99404.34;;;24.62;52.42
79625;BME280;69101;45.534;10.218;2023-06-14T06:11:58;99401.69;;;24.62;52.35
79625;BME280;69101;45.534;10.218;2023-06-14T06:14:23;99399.81;;;24.63;52.38
79625;BME280;69101;45.534;10.218;2023-06-14T06:16:48;99404.09;;;24.64;52.35
79625;BME280;69101;45.534;10.218;2023-06-14T06:19:14;99403.09;;;24.65;52.46
79625;BME280;69101;45.534;10.218;2023-06-14T06:21:40;99399.34;;;24.66;52.23
79625;BME280;69101;45.534;10.218;2023-06-14T06:24:06;99399.34;;;24.66;52.38
79625;BME280;69101;45.534;10.218;2023-06-14T06:26:33;99405.50;;;24.66;52.22
79625;BME280;69101;45.534;10.218;2023-06-14T06:28:58;99405.25;;;24.68;52.28
79625;BME280;69101;45.534;10.218;2023-06-14T06:31:24;99410.81;;;24.66;52.34
79625;BME280;69101;45.534;10.218;2023-06-14T06:33:50;99411.38;;;24.68;52.14
79625;BME280;69101;45.534;10.218;2023-06-14T06:36:16;99415.66;;;24.69;52.26
79625;BME280;69101;45.534;10.218;2023-06-14T06:38:41;99419.16;;;24.70;52.20
79625;BME280;69101;45.534;10.218;2023-06-14T06:41:07;99423.66;;;24.69;52.17
79625;BME280;69101;45.534;10.218;2023-06-14T06:43:32;99417.50;;;24.69;52.24
79625;BME280;69101;45.534;10.218;2023-06-14T06:45:58;99426.06;;;24.71;52.16
79625;BME280;69101;45.534;10.218;2023-06-14T06:48:23;99429.31;;;24.73;52.10
79625;BME280;69101;45.534;10.218;2023-06-14T06:50:49;99427.69;;;24.72;52.06
79625;BME280;69101;45.534;10.218;2023-06-14T06:53:14;99417.88;;;24.72;52.08
79625;BME280;69101;45.534;10.218;2023-06-14T06:55:40;99425.59;;;24.74;51.92
79625;BME280;69101;45.534;10.218;2023-06-14T06:58:05;99428.25;;;24.74;51.74
79625;BME280;69101;45.534;10.218;2023-06-14T07:00:31;99435.78;;;24.77;51.80
79625;BME280;69101;45.534;10.218;2023-06-14T07:02:57;99435.78;;;24.77;51.92
79625;BME280;69101;45.534;10.218;2023-06-14T07:05:22;99433.94;;;24.77;51.88
79625;BME280;69101;45.534;10.218;2023-06-14T07:07:48;99433.13;;;24.77;51.96
79625;BME280;69101;45.534;10.218;2023-06-14T07:10:13;99435.78;;;24.77;51.74
79625;BME280;69101;45.534;10.218;2023-06-14T07:12:39;99441.47;;;24.80;51.81
79625;BME280;69101;45.534;10.218;2023-06-14T07:15:08;99444.47;;;24.84;51.70
79625;BME280;69101;45.534;10.218;2023-06-14T07:17:34;99445.53;;;24.83;51.78
79625;BME280;69101;45.534;10.218;2023-06-14T07:19:59;99445.28;;;24.84;51.51
79625;BME280;69101;45.534;10.218;2023-06-14T07:22:26;99451.41;;;24.85;51.62
79625;BME280;69101;45.534;10.218;2023-06-14T07:24:51;99448.28;;;24.88;51.29
79625;BME280;69101;45.534;10.218;2023-06-14T07:27:17;99450.34;;;24.86;51.42
79625;BME280;69101;45.534;10.218;2023-06-14T07:29:42;99449.06;;;24.88;51.01
79625;BME280;69101;45.534;10.218;2023-06-14T07:32:07;99460.53;;;24.89;51.14
79625;BME280;69101;45.534;10.218;2023-06-14T07:34:33;99459.50;;;24.90;51.25
79625;BME280;69101;45.534;10.218;2023-06-14T07:36:58;99456.38;;;24.70;50.65
79625;BME280;69101;45.534;10.218;2023-06-14T07:39:24;99456.25;;;24.53;51.06
79625;BME280;69101;45.534;10.218;2023-06-14T07:41:49;99455.19;;;24.19;51.98
79625;BME280;69101;45.534;10.218;2023-06-14T07:44:15;99460.63;;;24.13;52.80
79625;BME280;69101;45.534;10.218;2023-06-14T07:46:41;99454.88;;;24.16;52.56
79625;BME280;69101;45.534;10.218;2023-06-14T07:49:06;99462.03;;;24.15;52.66
79625;BME280;69101;45.534;10.218;2023-06-14T07:51:32;99459.59;;;24.25;52.80
79625;BME280;69101;45.534;10.218;2023-06-14T07:53:59;99467.13;;;24.40;52.41
79625;BME280;69101;45.534;10.218;2023-06-14T07:56:26;99462.75;;;24.34;52.33
79625;BME280;69101;45.534;10.218;2023-06-14T07:58:51;99458.22;;;24.35;52.20
79625;BME280;69101;45.534;10.218;2023-06-14T08:01:17;99462.94;;;24.33;52.36
79625;BME280;69101;45.534;10.218;2023-06-14T08:03:42;99459.16;;;24.28;52.46
79625;BME280;69101;45.534;10.218;2023-06-14T08:06:08;99452.31;;;24.33;52.28
79625;BME280;69101;45.534;10.218;2023-06-14T08:08:33;99466.31;;;24.40;52.39
79625;BME280;69101;45.534;10.218;2023-06-14T08:10:59;99462.63;;;24.41;52.38
79625;BME280;69101;45.534;10.218;2023-06-14T08:13:24;99464.56;;;24.45;52.26
79625;BME280;69101;45.534;10.218;2023-06-14T08:15:50;99467.47;;;24.44;52.37
79625;BME280;69101;45.534;10.218;2023-06-14T08:18:15;99467.72;;;24.54;52.44
79625;BME280;69101;45.534;10.218;2023-06-14T08:20:41;99461.78;;;24.40;52.33
79625;BME280;69101;45.534;10.218;2023-06-14T08:23:06;99474.75;;;24.37;52.56
79625;BME280;69101;45.534;10.218;2023-06-14T08:25:32;99471.03;;;24.38;52.41
79625;BME280;69101;45.534;10.218;2023-06-14T08:27:58;99468.63;;;24.36;52.31
79625;BME280;69101;45.534;10.218;2023-06-14T08:30:24;99477.75;;;24.40;52.38
79625;BME280;69101;45.534;10.218;2023-06-14T08:32:49;99476.16;;;24.39;52.05
79625;BME280;69101;45.534;10.218;2023-06-14T08:35:15;99479.25;;;24.48;51.62
79625;BME280;69101;45.534;10.218;2023-06-14T08:37:41;99472.91;;;24.49;51.13
79625;BME280;69101;45.534;10.218;2023-06-14T08:40:17;99479.13;;;24.43;51.26
79625;BME280;69101;45.534;10.218;2023-06-14T08:42:43;99474.75;;;24.48;51.41
79625;BME280;69101;45.534;10.218;2023-06-14T08:45:09;99485.75;;;24.52;51.20
79625;BME280;69101;45.534;10.218;2023-06-14T08:47:34;99477.63;;;24.58;50.51
79625;BME280;69101;45.534;10.218;2023-06-14T08:50:02;99476.59;;;24.48;50.41
79625;BME280;69101;45.534;10.218;2023-06-14T08:52:33;99484.34;;;24.49;50.88
79625;BME280;69101;45.534;10.218;2023-06-14T08:55:06;99483.22;;;24.57;50.63
79625;BME280;69101;45.534;10.218;2023-06-14T08:57:32;99481.47;;;24.62;50.85
79625;BME280;69101;45.534;10.218;2023-06-14T08:59:59;99489.09;;;24.59;50.81
79625;BME280;69101;45.534;10.218;2023-06-14T09:02:30;99489.34;;;24.57;50.90
79625;BME280;69101;45.534;10.218;2023-06-14T09:04:55;99487.47;;;24.58;50.93
79625;BME280;69101;45.534;10.218;2023-06-14T09:07:24;99488.75;;;24.67;50.68
79625;BME280;69101;45.534;10.218;2023-06-14T09:10:06;99488.75;;;24.67;51.36
79625;BME280;69101;45.534;10.218;2023-06-14T09:12:32;99495.81;;;24.73;51.71
79625;BME280;69101;45.534;10.218;2023-06-14T09:14:57;99491.75;;;24.70;51.44
79625;BME280;69101;45.534;10.218;2023-06-14T09:17:23;99496.97;;;24.77;51.21
79625;BME280;69101;45.534;10.218;2023-06-14T09:19:48;99498.81;;;24.53;49.74
79625;BME280;69101;45.534;10.218;2023-06-14T09:22:16;99501.47;;;24.53;50.61
79625;BME280;69101;45.534;10.218;2023-06-14T09:24:41;99492.91;;;24.51;51.31
79625;BME280;69101;45.534;10.218;2023-06-14T09:27:07;99499.38;;;24.67;50.25
79625;BME280;69101;45.534;10.218;2023-06-14T09:29:33;99489.91;;;24.71;50.09
79625;BME280;69101;45.534;10.218;2023-06-14T09:31:58;99494.63;;;24.69;49.89
79625;BME280;69101;45.534;10.218;2023-06-14T09:34:24;99499.72;;;24.70;49.96
79625;BME280;69101;45.534;10.218;2023-06-14T09:36:49;99505.72;;;24.66;49.41
79625;BME280;69101;45.534;10.218;2023-06-14T09:39:17;99497.31;;;24.69;49.92
79625;BME280;69101;45.534;10.218;2023-06-14T09:41:43;99502.53;;;24.75;49.90
79625;BME280;69101;45.534;10.218;2023-06-14T09:44:10;99501.28;;;24.78;49.80
79625;BME280;69101;45.534;10.218;2023-06-14T09:46:36;99496.13;;;24.76;49.54
79625;BME280;69101;45.534;10.218;2023-06-14T09:49:03;99504.94;;;24.77;49.78
79625;BME280;69101;45.534;10.218;2023-06-14T09:51:29;99508.41;;;24.66;49.86
79625;BME280;69101;45.534;10.218;2023-06-14T09:54:02;99510.94;;;24.61;50.20
79625;BME280;69101;45.534;10.218;2023-06-14T09:56:31;99512.78;;;24.60;50.54
79625;BME280;69101;45.534;10.218;2023-06-14T09:58:59;99507.47;;;24.49;50.74
79625;BME280;69101;45.534;10.218;2023-06-14T10:01:27;99515.94;;;24.57;50.81
79625;BME280;69101;45.534;10.218;2023-06-14T10:03:55;99509.34;;;24.60;49.79
79625;BME280;69101;45.534;10.218;2023-06-14T10:06:25;99504.69;;;24.44;50.51
79625;BME280;69101;45.534;10.218;2023-06-14T10:08:57;99516.22;;;24.38;50.24
79625;BME280;69101;45.534;10.218;2023-06-14T10:11:26;99504.53;;;24.27;50.20
79625;BME280;69101;45.534;10.218;2023-06-14T10:13:51;99505.16;;;24.29;50.23
79625;BME280;69101;45.534;10.218;2023-06-14T10:19:28;99494.06;;;24.44;50.30
79625;BME280;69101;45.534;10.218;2023-06-14T10:22:09;99494.66;;;24.57;49.73
79625;BME280;69101;45.534;10.218;2023-06-14T10:24:43;99493.00;;;24.68;49.39
79625;BME280;69101;45.534;10.218;2023-06-14T10:27:09;99497.53;;;24.67;49.25
79625;BME280;69101;45.534;10.218;2023-06-14T10:32:27;99490.50;;;24.50;50.27
79625;BME280;69101;45.534;10.218;2023-06-14T10:35:01;99493.84;;;24.57;50.76
79625;BME280;69101;45.534;10.218;2023-06-14T10:37:27;99494.06;;;24.67;50.18
79625;BME280;69101;45.534;10.218;2023-06-14T10:39:53;99483.09;;;24.86;50.11
79625;BME280;69101;45.534;10.218;2023-06-14T10:42:19;99479.97;;;25.01;50.09
79625;BME280;69101;45.534;10.218;2023-06-14T10:44:51;99486.53;;;25.10;49.71
79625;BME280;69101;45.534;10.218;2023-06-14T10:49:53;99480.84;;;25.18;49.64
79625;BME280;69101;45.534;10.218;2023-06-14T10:52:27;99476.66;;;25.22;49.52
79625;BME280;69101;45.534;10.218;2023-06-14T10:57:24;99470.66;;;25.27;49.36
79625;BME280;69101;45.534;10.218;2023-06-14T10:59:50;99475.72;;;25.28;49.07
79625;BME280;69101;45.534;10.218;2023-06-14T11:05:08;99470.97;;;25.30;49.03
79625;BME280;69101;45.534;10.218;2023-06-14T11:10:37;99469.69;;;25.33;48.45
79625;BME280;69101;45.534;10.218;2023-06-14T11:13:03;99462.50;;;25.33;48.78
79625;BME280;69101;45.534;10.218;2023-06-14T11:15:32;99458.00;;;25.34;48.75
79625;BME280;69101;45.534;10.218;2023-06-14T11:18:03;99458.81;;;25.34;48.70
79625;BME280;69101;45.534;10.218;2023-06-14T11:20:31;99467.59;;;25.35;48.27
79625;BME280;69101;45.534;10.218;2023-06-14T11:22:57;99459.38;;;25.36;48.15
79625;BME280;69101;45.534;10.218;2023-06-14T11:25:23;99447.56;;;25.32;48.37
79625;BME280;69101;45.534;10.218;2023-06-14T11:27:52;99446.06;;;25.36;48.09
79625;BME280;69101;45.534;10.218;2023-06-14T11:30:17;99447.09;;;25.35;47.76
79625;BME280;69101;45.534;10.218;2023-06-14T11:32:49;99452.22;;;25.37;47.88
79625;BME280;69101;45.534;10.218;2023-06-14T11:35:16;99445.00;;;25.37;48.20
79625;BME280;69101;45.534;10.218;2023-06-14T11:37:42;99439.13;;;25.35;47.90
79625;BME280;69101;45.534;10.218;2023-06-14T11:40:10;99443.16;;;25.38;47.50
79625;BME280;69101;45.534;10.218;2023-06-14T11:42:37;99434.34;;;25.37;47.50
79625;BME280;69101;45.534;10.218;2023-06-14T11:45:05;99438.66;;;25.38;47.56
79625;BME280;69101;45.534;10.218;2023-06-14T11:47:33;99437.84;;;25.38;47.84
79625;BME280;69101;45.534;10.218;2023-06-14T11:50:07;99425.59;;;25.37;46.96
79625;BME280;69101;45.534;10.218;2023-06-14T11:52:37;99423.72;;;25.37;46.95
79625;BME280;69101;45.534;10.218;2023-06-14T11:55:03;99430.66;;;25.38;46.49
79625;BME280;69101;45.534;10.218;2023-06-14T11:57:34;99423.50;;;25.39;46.96
79625;BME280;69101;45.534;10.218;2023-06-14T12:00:03;99432.50;;;25.38;46.51
79625;BME280;69101;45.534;10.218;2023-06-14T12:02:31;99421.03;;;25.37;46.20
79625;BME280;69101;45.534;10.218;2023-06-14T12:05:04;99418.97;;;25.39;45.92
79625;BME280;69101;45.534;10.218;2023-06-14T12:07:30;99418.38;;;25.37;46.30
79625;BME280;69101;45.534;10.218;2023-06-14T12:12:22;99416.31;;;25.39;45.80
79625;BME280;69101;45.534;10.218;2023-06-14T12:14:49;99417.91;;;25.40;45.55
79625;BME280;69101;45.534;10.218;2023-06-14T12:17:17;99406.69;;;25.38;45.55
79625;BME280;69101;45.534;10.218;2023-06-14T12:19:44;99397.69;;;25.39;45.85
79625;BME280;69101;45.534;10.218;2023-06-14T12:22:10;99398.72;;;25.38;45.59
79625;BME280;69101;45.534;10.218;2023-06-14T12:24:36;99400.34;;;25.39;46.06
79625;BME280;69101;45.534;10.218;2023-06-14T12:27:01;99396.88;;;25.39;45.65
79625;BME280;69101;45.534;10.218;2023-06-14T12:29:28;99394.19;;;25.39;45.09
79625;BME280;69101;45.534;10.218;2023-06-14T12:31:54;99400.34;;;25.39;44.78
79625;BME280;69101;45.534;10.218;2023-06-14T12:34:22;99396.06;;;25.38;45.32
79625;BME280;69101;45.534;10.218;2023-06-14T12:36:47;99384.38;;;25.39;44.94
79625;BME280;69101;45.534;10.218;2023-06-14T12:39:13;99387.81;;;25.40;45.16
79625;BME280;69101;45.534;10.218;2023-06-14T12:41:38;99393.13;;;25.40;44.50
79625;BME280;69101;45.534;10.218;2023-06-14T12:44:06;99384.59;;;25.38;44.27
79625;BME280;69101;45.534;10.218;2023-06-14T12:46:32;99384.59;;;25.38;44.39
79625;BME280;69101;45.534;10.218;2023-06-14T12:48:58;99383.56;;;25.39;43.99
79625;BME280;69101;45.534;10.218;2023-06-14T12:51:23;99379.72;;;25.35;43.67
79625;BME280;69101;45.534;10.218;2023-06-14T12:53:50;99384.75;;;25.31;43.93
79625;BME280;69101;45.534;10.218;2023-06-14T12:56:16;99381.03;;;25.32;43.53
79625;BME280;69101;45.534;10.218;2023-06-14T12:58:42;99378.94;;;25.34;43.96
79625;BME280;69101;45.534;10.218;2023-06-14T13:01:07;99378.94;;;25.34;44.49
79625;BME280;69101;45.534;10.218;2023-06-14T13:03:33;99380.06;;;25.38;44.43
79625;BME280;69101;45.534;10.218;2023-06-14T13:06:01;99382.50;;;25.40;44.24
79625;BME280;69101;45.534;10.218;2023-06-14T13:08:27;99377.75;;;25.42;44.67